sensor_id;sensor_type;location;lat;lon;timestamp;P1;durP1;ratioP1;P2;durP2;ratioP2
19089;SDS011;9677;50.656;13.064;2023-08-07T00:00:49;9.30;;;8.40;;
19089;SDS011;9677;50.656;13.064;2023-08-07T00:03:18;9.50;;;8.60;;
19089;SDS011;9677;50.656;13.064;2023-08-07T00:05:46;8.97;;;8.20;;
19089;SDS011;9677;50.656;13.064;2023-08-07T00:08:16;9.17;;;8.37;;
19089;SDS011;9677;50.656;13.064;2023-08-07T00:10:44;9.30;;;8.50;;
19089;SDS011;9677;50.656;13.064;2023-08-07T00:13:12;9.20;;;8.40;;
19089;SDS011;9677;50.656;13.064;2023-08-07T00:15:41;9.20;;;8.40;;
19089;SDS011;9677;50.656;13.064;2023-08-07T00:18:09;9.40;;;8.60;;
19089;SDS011;9677;50.656;13.064;2023-08-07T00:20:37;9.00;;;8.20;;
19089;SDS011;9677;50.656;13.064;2023-08-07T00:23:05;9.13;;;8.33;;
19089;SDS011;9677;50.656;13.064;2023-08-07T00:25:35;9.20;;;8.40;;
19089;SDS011;9677;50.656;13.064;2023-08-07T00:28:03;8.90;;;8.20;;
19089;SDS011;9677;50.656;13.064;2023-08-07T00:30:32;9.00;;;8.20;;
19089;SDS011;9677;50.656;13.064;2023-08-07T00:33:00;9.23;;;8.43;;
19089;SDS011;9677;50.656;13.064;2023-08-07T00:35:29;9.00;;;8.20;;
19089;SDS011;9677;50.656;13.064;2023-08-07T00:37:57;9.20;;;8.40;;
19089;SDS011;9677;50.656;13.064;2023-08-07T00:40:26;9.10;;;8.30;;
19089;SDS011;9677;50.656;13.064;2023-08-07T00:42:56;8.80;;;8.10;;
19089;SDS011;9677;50.656;13.064;2023-08-07T00:45:24;9.13;;;8.33;;
19089;SDS011;9677;50.656;13.064;2023-08-07T00:47:52;9.03;;;8.23;;
19089;SDS011;9677;50.656;13.064;2023-08-07T00:50:21;9.10;;;8.30;;
19089;SDS011;9677;50.656;13.064;2023-08-07T00:52:53;8.70;;;8.00;;
19089;SDS011;9677;50.656;13.064;2023-08-07T00:55:23;8.93;;;8.23;;
19089;SDS011;9677;50.656;13.064;2023-08-07T00:57:51;8.93;;;8.20;;
19089;SDS011;9677;50.656;13.064;2023-08-07T01:00:21;9.00;;;8.20;;
19089;SDS011;9677;50.656;13.064;2023-08-07T01:02:50;8.80;;;8.10;;
19089;SDS011;9677;50.656;13.064;2023-08-07T01:05:19;9.03;;;8.23;;
19089;SDS011;9677;50.656;13.064;2023-08-07T01:07:48;8.70;;;8.00;;
19089;SDS011;9677;50.656;13.064;2023-08-07T01:10:22;9.17;;;8.37;;
19089;SDS011;9677;50.656;13.064;2023-08-07T01:13:03;8.80;;;8.10;;
19089;SDS011;9677;50.656;13.064;2023-08-07T01:15:38;8.90;;;8.20;;
19089;SDS011;9677;50.656;13.064;2023-08-07T01:18:06;8.90;;;8.17;;
19089;SDS011;9677;50.656;13.064;2023-08-07T01:20:35;9.07;;;8.17;;
19089;SDS011;9677;50.656;13.064;2023-08-07T01:23:07;8.97;;;8.27;;
19089;SDS011;9677;50.656;13.064;2023-08-07T01:25:35;9.10;;;8.30;;
19089;SDS011;9677;50.656;13.064;2023-08-07T01:28:06;9.30;;;8.50;;
19089;SDS011;9677;50.656;13.064;2023-08-07T01:30:45;9.37;;;8.57;;
19089;SDS011;9677;50.656;13.064;2023-08-07T01:33:19;9.10;;;8.30;;
19089;SDS011;9677;50.656;13.064;2023-08-07T01:35:56;9.23;;;8.43;;
19089;SDS011;9677;50.656;13.064;2023-08-07T01:38:31;9.13;;;8.33;;
19089;SDS011;9677;50.656;13.064;2023-08-07T01:41:01;9.00;;;8.20;;
19089;SDS011;9677;50.656;13.064;2023-08-07T01:43:30;9.10;;;8.30;;
19089;SDS011;9677;50.656;13.064;2023-08-07T01:46:00;9.10;;;8.30;;
19089;SDS011;9677;50.656;13.064;2023-08-07T01:48:29;9.50;;;8.70;;
19089;SDS011;9677;50.656;13.064;2023-08-07T01:50:57;9.10;;;8.30;;
19089;SDS011;9677;50.656;13.064;2023-08-07T01:53:25;9.20;;;8.40;;
19089;SDS011;9677;50.656;13.064;2023-08-07T01:55:55;11.33;;;8.30;;
19089;SDS011;9677;50.656;13.064;2023-08-07T01:58:23;8.90;;;8.20;;
19089;SDS011;9677;50.656;13.064;2023-08-07T02:00:51;9.30;;;8.50;;
19089;SDS011;9677;50.656;13.064;2023-08-07T02:03:20;9.07;;;8.27;;
19089;SDS011;9677;50.656;13.064;2023-08-07T02:05:49;9.10;;;8.30;;
19089;SDS011;9677;50.656;13.064;2023-08-07T02:08:17;9.07;;;8.30;;
19089;SDS011;9677;50.656;13.064;2023-08-07T02:10:45;9.17;;;8.37;;
19089;SDS011;9677;50.656;13.064;2023-08-07T02:13:15;9.13;;;8.33;;
19089;SDS011;9677;50.656;13.064;2023-08-07T02:15:43;9.40;;;8.60;;
19089;SDS011;9677;50.656;13.064;2023-08-07T02:18:11;9.50;;;8.70;;
19089;SDS011;9677;50.656;13.064;2023-08-07T02:20:40;9.00;;;8.20;;
19089;SDS011;9677;50.656;13.064;2023-08-07T02:23:08;9.60;;;8.77;;
19089;SDS011;9677;50.656;13.064;2023-08-07T02:25:36;9.27;;;8.47;;
19089;SDS011;9677;50.656;13.064;2023-08-07T02:28:04;9.27;;;8.47;;
19089;SDS011;9677;50.656;13.064;2023-08-07T02:30:34;9.60;;;8.50;;
19089;SDS011;9677;50.656;13.064;2023-08-07T02:33:02;9.10;;;8.30;;
19089;SDS011;9677;50.656;13.064;2023-08-07T02:35:30;9.40;;;8.60;;
19089;SDS011;9677;50.656;13.064;2023-08-07T02:37:58;9.20;;;8.40;;
19089;SDS011;9677;50.656;13.064;2023-08-07T02:40:26;9.43;;;8.53;;
19089;SDS011;9677;50.656;13.064;2023-08-07T02:42:55;9.30;;;8.50;;
19089;SDS011;9677;50.656;13.064;2023-08-07T02:45:23;9.77;;;8.80;;
19089;SDS011;9677;50.656;13.064;2023-08-07T02:47:52;9.63;;;8.80;;
19089;SDS011;9677;50.656;13.064;2023-08-07T02:50:20;9.57;;;8.67;;
19089;SDS011;9677;50.656;13.064;2023-08-07T02:52:51;9.70;;;8.80;;
19089;SDS011;9677;50.656;13.064;2023-08-07T02:55:19;9.63;;;8.73;;
19089;SDS011;9677;50.656;13.064;2023-08-07T02:57:47;9.60;;;8.70;;
19089;SDS011;9677;50.656;13.064;2023-08-07T03:00:15;9.40;;;8.60;;
19089;SDS011;9677;50.656;13.064;2023-08-07T03:02:43;9.67;;;8.77;;
19089;SDS011;9677;50.656;13.064;2023-08-07T03:05:13;10.00;;;9.00;;
19089;SDS011;9677;50.656;13.064;2023-08-07T03:07:41;9.87;;;8.97;;
19089;SDS011;9677;50.656;13.064;2023-08-07T03:10:10;9.73;;;8.83;;
19089;SDS011;9677;50.656;13.064;2023-08-07T03:12:38;9.90;;;8.90;;
19089;SDS011;9677;50.656;13.064;2023-08-07T03:15:07;9.77;;;8.87;;
19089;SDS011;9677;50.656;13.064;2023-08-07T03:17:35;9.73;;;8.83;;
19089;SDS011;9677;50.656;13.064;2023-08-07T03:20:04;10.00;;;9.10;;
19089;SDS011;9677;50.656;13.064;2023-08-07T03:22:34;9.63;;;8.80;;
19089;SDS011;9677;50.656;13.064;2023-08-07T03:25:03;9.37;;;8.57;;
19089;SDS011;9677;50.656;13.064;2023-08-07T03:27:33;9.80;;;8.90;;
19089;SDS011;9677;50.656;13.064;2023-08-07T03:30:01;9.40;;;8.50;;
19089;SDS011;9677;50.656;13.064;2023-08-07T03:32:30;9.77;;;8.87;;
19089;SDS011;9677;50.656;13.064;2023-08-07T03:34:58;9.70;;;8.80;;
19089;SDS011;9677;50.656;13.064;2023-08-07T03:37:27;10.10;;;9.20;;
19089;SDS011;9677;50.656;13.064;2023-08-07T03:39:56;9.67;;;8.80;;
19089;SDS011;9677;50.656;13.064;2023-08-07T03:42:25;9.67;;;8.77;;
19089;SDS011;9677;50.656;13.064;2023-08-07T03:44:54;9.73;;;8.83;;
19089;SDS011;9677;50.656;13.064;2023-08-07T03:47:22;9.70;;;8.80;;
19089;SDS011;9677;50.656;13.064;2023-08-07T03:49:50;10.00;;;9.10;;
19089;SDS011;9677;50.656;13.064;2023-08-07T03:52:20;9.40;;;8.60;;
19089;SDS011;9677;50.656;13.064;2023-08-07T03:54:48;10.10;;;9.10;;
19089;SDS011;9677;50.656;13.064;2023-08-07T03:57:17;9.70;;;8.80;;
19089;SDS011;9677;50.656;13.064;2023-08-07T03:59:48;10.00;;;9.10;;
19089;SDS011;9677;50.656;13.064;2023-08-07T04:02:16;9.80;;;8.90;;
19089;SDS011;9677;50.656;13.064;2023-08-07T04:04:44;10.00;;;9.10;;
19089;SDS011;9677;50.656;13.064;2023-08-07T04:07:12;9.60;;;8.70;;
19089;SDS011;9677;50.656;13.064;2023-08-07T04:09:40;9.80;;;8.90;;
19089;SDS011;9677;50.656;13.064;2023-08-07T04:12:09;9.87;;;8.97;;
19089;SDS011;9677;50.656;13.064;2023-08-07T04:14:38;10.00;;;9.10;;
19089;SDS011;9677;50.656;13.064;2023-08-07T04:17:06;9.77;;;8.87;;
19089;SDS011;9677;50.656;13.064;2023-08-07T04:19:35;9.70;;;8.70;;
19089;SDS011;9677;50.656;13.064;2023-08-07T04:22:03;10.03;;;9.13;;
19089;SDS011;9677;50.656;13.064;2023-08-07T04:24:31;9.67;;;8.77;;
19089;SDS011;9677;50.656;13.064;2023-08-07T04:26:59;9.80;;;8.90;;
19089;SDS011;9677;50.656;13.064;2023-08-07T04:29:28;9.40;;;8.60;;
19089;SDS011;9677;50.656;13.064;2023-08-07T04:31:57;9.93;;;8.93;;
19089;SDS011;9677;50.656;13.064;2023-08-07T04:34:25;10.07;;;9.17;;
19089;SDS011;9677;50.656;13.064;2023-08-07T04:36:53;9.60;;;8.70;;
19089;SDS011;9677;50.656;13.064;2023-08-07T04:39:23;9.80;;;8.80;;
19089;SDS011;9677;50.656;13.064;2023-08-07T04:41:51;9.80;;;8.90;;
19089;SDS011;9677;50.656;13.064;2023-08-07T04:44:19;10.00;;;9.10;;
19089;SDS011;9677;50.656;13.064;2023-08-07T04:46:47;9.97;;;9.07;;
19089;SDS011;9677;50.656;13.064;2023-08-07T04:49:17;9.93;;;9.00;;
19089;SDS011;9677;50.656;13.064;2023-08-07T04:51:45;10.23;;;9.23;;
19089;SDS011;9677;50.656;13.064;2023-08-07T04:54:13;9.60;;;8.70;;
19089;SDS011;9677;50.656;13.064;2023-08-07T04:56:41;9.67;;;8.80;;
19089;SDS011;9677;50.656;13.064;2023-08-07T04:59:11;13.50;;;9.10;;
19089;SDS011;9677;50.656;13.064;2023-08-07T05:01:39;10.00;;;9.00;;
19089;SDS011;9677;50.656;13.064;2023-08-07T05:04:07;10.20;;;9.30;;
19089;SDS011;9677;50.656;13.064;2023-08-07T05:06:36;9.60;;;8.70;;
19089;SDS011;9677;50.656;13.064;2023-08-07T05:09:05;9.90;;;9.00;;
19089;SDS011;9677;50.656;13.064;2023-08-07T05:11:33;9.97;;;8.97;;
19089;SDS011;9677;50.656;13.064;2023-08-07T05:14:01;11.30;;;9.00;;
19089;SDS011;9677;50.656;13.064;2023-08-07T05:16:30;9.80;;;8.90;;
19089;SDS011;9677;50.656;13.064;2023-08-07T05:18:58;9.80;;;8.90;;
19089;SDS011;9677;50.656;13.064;2023-08-07T05:21:26;9.30;;;8.50;;
19089;SDS011;9677;50.656;13.064;2023-08-07T05:23:56;9.50;;;8.60;;
19089;SDS011;9677;50.656;13.064;2023-08-07T05:26:24;9.83;;;8.83;;
19089;SDS011;9677;50.656;13.064;2023-08-07T05:28:52;9.73;;;8.73;;
19089;SDS011;9677;50.656;13.064;2023-08-07T05:31:22;10.23;;;9.33;;
19089;SDS011;9677;50.656;13.064;2023-08-07T05:33:54;9.70;;;8.80;;
19089;SDS011;9677;50.656;13.064;2023-08-07T05:36:22;9.70;;;8.80;;
19089;SDS011;9677;50.656;13.064;2023-08-07T05:38:51;9.43;;;8.63;;
19089;SDS011;9677;50.656;13.064;2023-08-07T05:41:20;12.90;;;9.00;;
19089;SDS011;9677;50.656;13.064;2023-08-07T05:43:49;9.90;;;8.90;;
19089;SDS011;9677;50.656;13.064;2023-08-07T05:46:17;9.60;;;8.70;;
19089;SDS011;9677;50.656;13.064;2023-08-07T05:48:45;9.60;;;8.70;;
19089;SDS011;9677;50.656;13.064;2023-08-07T05:51:13;9.43;;;8.63;;
19089;SDS011;9677;50.656;13.064;2023-08-07T05:53:41;9.30;;;8.50;;
19089;SDS011;9677;50.656;13.064;2023-08-07T05:56:10;9.80;;;8.80;;
19089;SDS011;9677;50.656;13.064;2023-08-07T05:58:39;9.50;;;8.63;;
19089;SDS011;9677;50.656;13.064;2023-08-07T06:01:07;9.60;;;8.70;;
19089;SDS011;9677;50.656;13.064;2023-08-07T06:03:36;9.80;;;8.90;;
19089;SDS011;9677;50.656;13.064;2023-08-07T06:06:04;9.50;;;8.50;;
19089;SDS011;9677;50.656;13.064;2023-08-07T06:08:32;10.10;;;8.97;;
19089;SDS011;9677;50.656;13.064;2023-08-07T06:11:00;9.50;;;8.50;;
19089;SDS011;9677;50.656;13.064;2023-08-07T06:13:29;9.70;;;8.80;;
19089;SDS011;9677;50.656;13.064;2023-08-07T06:16:03;9.77;;;8.87;;
19089;SDS011;9677;50.656;13.064;2023-08-07T06:18:32;9.80;;;8.90;;
19089;SDS011;9677;50.656;13.064;2023-08-07T06:21:01;9.33;;;8.53;;
19089;SDS011;9677;50.656;13.064;2023-08-07T06:23:30;9.17;;;8.37;;
19089;SDS011;9677;50.656;13.064;2023-08-07T06:25:58;9.63;;;8.73;;
19089;SDS011;9677;50.656;13.064;2023-08-07T06:28:30;9.20;;;8.40;;
19089;SDS011;9677;50.656;13.064;2023-08-07T06:31:04;9.70;;;8.80;;
19089;SDS011;9677;50.656;13.064;2023-08-07T06:33:35;9.63;;;8.40;;
19089;SDS011;9677;50.656;13.064;2023-08-07T06:36:03;9.50;;;8.60;;
19089;SDS011;9677;50.656;13.064;2023-08-07T06:38:32;9.03;;;8.23;;
19089;SDS011;9677;50.656;13.064;2023-08-07T06:41:00;9.10;;;8.33;;
19089;SDS011;9677;50.656;13.064;2023-08-07T06:43:28;9.40;;;8.60;;
19089;SDS011;9677;50.656;13.064;2023-08-07T06:45:57;9.20;;;8.30;;
19089;SDS011;9677;50.656;13.064;2023-08-07T06:48:27;9.03;;;8.30;;
19089;SDS011;9677;50.656;13.064;2023-08-07T06:50:55;9.03;;;8.23;;
19089;SDS011;9677;50.656;13.064;2023-08-07T06:53:24;9.23;;;8.43;;
19089;SDS011;9677;50.656;13.064;2023-08-07T06:55:52;9.07;;;8.27;;
19089;SDS011;9677;50.656;13.064;2023-08-07T06:58:23;9.20;;;8.40;;
19089;SDS011;9677;50.656;13.064;2023-08-07T07:00:51;9.10;;;8.30;;
19089;SDS011;9677;50.656;13.064;2023-08-07T07:03:19;9.20;;;8.40;;
19089;SDS011;9677;50.656;13.064;2023-08-07T07:05:49;9.30;;;8.50;;
19089;SDS011;9677;50.656;13.064;2023-08-07T07:08:18;9.13;;;8.37;;
19089;SDS011;9677;50.656;13.064;2023-08-07T07:10:46;8.90;;;8.10;;
19089;SDS011;9677;50.656;13.064;2023-08-07T07:13:14;9.33;;;8.53;;
19089;SDS011;9677;50.656;13.064;2023-08-07T07:15:42;9.20;;;8.40;;
19089;SDS011;9677;50.656;13.064;2023-08-07T07:18:10;9.20;;;8.40;;
19089;SDS011;9677;50.656;13.064;2023-08-07T07:20:39;9.07;;;8.27;;
19089;SDS011;9677;50.656;13.064;2023-08-07T07:23:08;8.90;;;8.20;;
19089;SDS011;9677;50.656;13.064;2023-08-07T07:25:36;8.90;;;8.10;;
19089;SDS011;9677;50.656;13.064;2023-08-07T07:28:04;9.13;;;8.33;;
19089;SDS011;9677;50.656;13.064;2023-08-07T07:30:33;9.20;;;8.40;;
19089;SDS011;9677;50.656;13.064;2023-08-07T07:33:01;9.23;;;8.43;;
19089;SDS011;9677;50.656;13.064;2023-08-07T07:35:29;9.10;;;8.30;;
19089;SDS011;9677;50.656;13.064;2023-08-07T07:37:57;9.20;;;8.40;;
19089;SDS011;9677;50.656;13.064;2023-08-07T07:40:27;9.13;;;8.30;;
19089;SDS011;9677;50.656;13.064;2023-08-07T07:42:55;9.10;;;8.30;;
19089;SDS011;9677;50.656;13.064;2023-08-07T07:45:23;9.10;;;8.30;;
19089;SDS011;9677;50.656;13.064;2023-08-07T07:47:51;8.90;;;8.20;;
19089;SDS011;9677;50.656;13.064;2023-08-07T07:50:19;9.17;;;8.37;;
19089;SDS011;9677;50.656;13.064;2023-08-07T07:52:48;9.17;;;8.37;;
19089;SDS011;9677;50.656;13.064;2023-08-07T07:55:16;9.10;;;8.30;;
19089;SDS011;9677;50.656;13.064;2023-08-07T07:57:46;9.30;;;8.50;;
19089;SDS011;9677;50.656;13.064;2023-08-07T08:00:14;9.23;;;8.43;;
19089;SDS011;9677;50.656;13.064;2023-08-07T08:02:45;9.23;;;8.43;;
19089;SDS011;9677;50.656;13.064;2023-08-07T08:05:13;9.33;;;8.47;;
19089;SDS011;9677;50.656;13.064;2023-08-07T08:07:42;9.23;;;8.43;;
19089;SDS011;9677;50.656;13.064;2023-08-07T08:10:10;9.37;;;8.47;;
19089;SDS011;9677;50.656;13.064;2023-08-07T08:12:39;9.63;;;8.73;;
19089;SDS011;9677;50.656;13.064;2023-08-07T08:15:09;9.13;;;8.33;;
19089;SDS011;9677;50.656;13.064;2023-08-07T08:17:38;9.43;;;8.60;;
19089;SDS011;9677;50.656;13.064;2023-08-07T08:20:06;9.33;;;8.53;;
19089;SDS011;9677;50.656;13.064;2023-08-07T08:22:36;9.10;;;8.30;;
19089;SDS011;9677;50.656;13.064;2023-08-07T08:25:04;9.20;;;8.40;;
19089;SDS011;9677;50.656;13.064;2023-08-07T08:27:33;9.43;;;8.60;;
19089;SDS011;9677;50.656;13.064;2023-08-07T08:30:01;9.00;;;8.20;;
19089;SDS011;9677;50.656;13.064;2023-08-07T08:32:31;9.30;;;8.50;;
19089;SDS011;9677;50.656;13.064;2023-08-07T08:35:00;9.00;;;8.20;;
19089;SDS011;9677;50.656;13.064;2023-08-07T08:37:28;9.20;;;8.40;;
19089;SDS011;9677;50.656;13.064;2023-08-07T08:39:56;9.20;;;8.40;;
19089;SDS011;9677;50.656;13.064;2023-08-07T08:42:24;9.00;;;8.20;;
19089;SDS011;9677;50.656;13.064;2023-08-07T08:44:54;8.90;;;8.20;;
19089;SDS011;9677;50.656;13.064;2023-08-07T08:47:25;9.20;;;8.40;;
19089;SDS011;9677;50.656;13.064;2023-08-07T08:49:58;9.20;;;8.40;;
19089;SDS011;9677;50.656;13.064;2023-08-07T08:52:29;9.30;;;8.50;;
19089;SDS011;9677;50.656;13.064;2023-08-07T08:54:59;9.40;;;8.50;;
19089;SDS011;9677;50.656;13.064;2023-08-07T08:57:29;9.17;;;8.37;;
19089;SDS011;9677;50.656;13.064;2023-08-07T08:59:58;9.10;;;8.30;;
19089;SDS011;9677;50.656;13.064;2023-08-07T09:02:27;9.20;;;8.30;;
19089;SDS011;9677;50.656;13.064;2023-08-07T09:04:57;9.00;;;8.30;;
19089;SDS011;9677;50.656;13.064;2023-08-07T09:07:25;9.17;;;8.37;;
19089;SDS011;9677;50.656;13.064;2023-08-07T09:09:55;9.10;;;8.30;;
19089;SDS011;9677;50.656;13.064;2023-08-07T09:12:25;9.17;;;8.37;;
19089;SDS011;9677;50.656;13.064;2023-08-07T09:14:57;8.80;;;8.10;;
19089;SDS011;9677;50.656;13.064;2023-08-07T09:17:27;8.80;;;8.10;;
19089;SDS011;9677;50.656;13.064;2023-08-07T09:19:58;9.20;;;8.40;;
19089;SDS011;9677;50.656;13.064;2023-08-07T09:22:27;9.17;;;8.37;;
19089;SDS011;9677;50.656;13.064;2023-08-07T09:24:55;9.20;;;8.40;;
19089;SDS011;9677;50.656;13.064;2023-08-07T09:27:26;8.90;;;8.10;;
19089;SDS011;9677;50.656;13.064;2023-08-07T09:29:54;9.33;;;8.53;;
19089;SDS011;9677;50.656;13.064;2023-08-07T09:32:23;9.30;;;8.50;;
19089;SDS011;9677;50.656;13.064;2023-08-07T09:34:51;9.13;;;8.33;;
19089;SDS011;9677;50.656;13.064;2023-08-07T09:37:21;9.60;;;8.80;;
19089;SDS011;9677;50.656;13.064;2023-08-07T09:39:51;9.53;;;8.73;;
19089;SDS011;9677;50.656;13.064;2023-08-07T09:42:19;9.60;;;8.80;;
19089;SDS011;9677;50.656;13.064;2023-08-07T09:44:47;9.40;;;8.60;;
19089;SDS011;9677;50.656;13.064;2023-08-07T09:47:17;9.30;;;8.50;;
19089;SDS011;9677;50.656;13.064;2023-08-07T09:49:46;9.57;;;8.70;;
19089;SDS011;9677;50.656;13.064;2023-08-07T09:52:15;9.20;;;8.40;;
19089;SDS011;9677;50.656;13.064;2023-08-07T09:54:44;9.10;;;8.30;;
19089;SDS011;9677;50.656;13.064;2023-08-07T09:57:12;9.00;;;8.20;;
19089;SDS011;9677;50.656;13.064;2023-08-07T09:59:41;9.47;;;8.60;;
19089;SDS011;9677;50.656;13.064;2023-08-07T10:02:09;9.23;;;8.43;;
19089;SDS011;9677;50.656;13.064;2023-08-07T10:04:38;9.70;;;8.80;;
19089;SDS011;9677;50.656;13.064;2023-08-07T10:07:07;9.13;;;8.33;;
19089;SDS011;9677;50.656;13.064;2023-08-07T10:09:38;9.20;;;8.40;;
19089;SDS011;9677;50.656;13.064;2023-08-07T10:12:09;9.10;;;8.30;;
19089;SDS011;9677;50.656;13.064;2023-08-07T10:14:38;9.20;;;8.40;;
19089;SDS011;9677;50.656;13.064;2023-08-07T10:17:08;9.30;;;8.50;;
19089;SDS011;9677;50.656;13.064;2023-08-07T10:19:38;9.30;;;8.50;;
19089;SDS011;9677;50.656;13.064;2023-08-07T10:22:06;9.30;;;8.40;;
19089;SDS011;9677;50.656;13.064;2023-08-07T10:24:35;9.47;;;8.57;;
19089;SDS011;9677;50.656;13.064;2023-08-07T10:27:06;9.17;;;8.37;;
19089;SDS011;9677;50.656;13.064;2023-08-07T10:29:37;9.00;;;8.20;;
19089;SDS011;9677;50.656;13.064;2023-08-07T10:32:06;9.27;;;8.47;;
19089;SDS011;9677;50.656;13.064;2023-08-07T10:34:36;8.70;;;8.00;;
19089;SDS011;9677;50.656;13.064;2023-08-07T10:37:05;9.17;;;8.37;;
19089;SDS011;9677;50.656;13.064;2023-08-07T10:39:34;8.77;;;8.03;;
19089;SDS011;9677;50.656;13.064;2023-08-07T10:42:02;9.03;;;8.23;;
19089;SDS011;9677;50.656;13.064;2023-08-07T10:44:33;9.13;;;8.33;;
19089;SDS011;9677;50.656;13.064;2023-08-07T10:47:15;8.83;;;8.10;;
19089;SDS011;9677;50.656;13.064;2023-08-07T10:50:01;9.10;;;8.30;;
19089;SDS011;9677;50.656;13.064;2023-08-07T10:52:31;9.00;;;8.20;;
19089;SDS011;9677;50.656;13.064;2023-08-07T10:54:59;9.20;;;8.30;;
19089;SDS011;9677;50.656;13.064;2023-08-07T10:57:28;9.03;;;8.23;;
19089;SDS011;9677;50.656;13.064;2023-08-07T11:00:03;8.90;;;8.20;;
19089;SDS011;9677;50.656;13.064;2023-08-07T11:02:36;9.00;;;8.20;;
19089;SDS011;9677;50.656;13.064;2023-08-07T11:05:06;9.03;;;8.23;;
19089;SDS011;9677;50.656;13.064;2023-08-07T11:07:34;9.20;;;8.40;;
19089;SDS011;9677;50.656;13.064;2023-08-07T11:10:08;8.77;;;8.07;;
19089;SDS011;9677;50.656;13.064;2023-08-07T11:12:40;8.60;;;7.90;;
19089;SDS011;9677;50.656;13.064;2023-08-07T11:15:12;8.73;;;8.00;;
19089;SDS011;9677;50.656;13.064;2023-08-07T11:17:41;8.80;;;8.10;;
19089;SDS011;9677;50.656;13.064;2023-08-07T11:20:10;8.90;;;8.10;;
19089;SDS011;9677;50.656;13.064;2023-08-07T11:22:38;9.00;;;8.30;;
19089;SDS011;9677;50.656;13.064;2023-08-07T11:25:07;8.70;;;8.00;;
19089;SDS011;9677;50.656;13.064;2023-08-07T11:27:43;9.17;;;8.37;;
19089;SDS011;9677;50.656;13.064;2023-08-07T11:30:13;8.80;;;8.10;;
19089;SDS011;9677;50.656;13.064;2023-08-07T11:32:41;8.93;;;8.10;;
19089;SDS011;9677;50.656;13.064;2023-08-07T11:35:10;8.80;;;8.00;;
19089;SDS011;9677;50.656;13.064;2023-08-07T11:37:45;8.80;;;8.10;;
19089;SDS011;9677;50.656;13.064;2023-08-07T11:40:14;9.10;;;8.30;;
19089;SDS011;9677;50.656;13.064;2023-08-07T11:42:42;9.00;;;8.10;;
19089;SDS011;9677;50.656;13.064;2023-08-07T11:45:10;9.10;;;8.30;;
19089;SDS011;9677;50.656;13.064;2023-08-07T11:47:39;8.80;;;8.10;;
19089;SDS011;9677;50.656;13.064;2023-08-07T11:50:09;8.83;;;8.03;;
19089;SDS011;9677;50.656;13.064;2023-08-07T11:52:38;8.80;;;8.10;;
19089;SDS011;9677;50.656;13.064;2023-08-07T11:55:07;8.90;;;8.10;;
19089;SDS011;9677;50.656;13.064;2023-08-07T11:57:37;8.90;;;8.20;;
19089;SDS011;9677;50.656;13.064;2023-08-07T12:00:09;9.20;;;8.40;;
19089;SDS011;9677;50.656;13.064;2023-08-07T12:02:42;8.50;;;7.80;;
19089;SDS011;9677;50.656;13.064;2023-08-07T12:05:11;8.73;;;8.03;;
19089;SDS011;9677;50.656;13.064;2023-08-07T12:07:39;8.87;;;8.10;;
19089;SDS011;9677;50.656;13.064;2023-08-07T12:10:08;8.93;;;8.13;;
19089;SDS011;9677;50.656;13.064;2023-08-07T12:12:38;8.60;;;7.90;;
19089;SDS011;9677;50.656;13.064;2023-08-07T12:15:07;8.70;;;8.00;;
19089;SDS011;9677;50.656;13.064;2023-08-07T12:17:37;8.47;;;7.77;;
19089;SDS011;9677;50.656;13.064;2023-08-07T12:20:07;8.40;;;7.70;;
19089;SDS011;9677;50.656;13.064;2023-08-07T12:22:38;8.60;;;7.90;;
19089;SDS011;9677;50.656;13.064;2023-08-07T12:25:06;8.40;;;7.70;;
19089;SDS011;9677;50.656;13.064;2023-08-07T12:27:35;8.50;;;7.80;;
19089;SDS011;9677;50.656;13.064;2023-08-07T12:30:03;8.77;;;7.97;;
19089;SDS011;9677;50.656;13.064;2023-08-07T12:32:33;8.70;;;8.00;;
19089;SDS011;9677;50.656;13.064;2023-08-07T12:35:01;8.53;;;7.83;;
19089;SDS011;9677;50.656;13.064;2023-08-07T12:37:34;8.50;;;7.80;;
19089;SDS011;9677;50.656;13.064;2023-08-07T12:40:03;8.60;;;7.90;;
19089;SDS011;9677;50.656;13.064;2023-08-07T12:42:35;8.80;;;8.00;;
19089;SDS011;9677;50.656;13.064;2023-08-07T12:45:03;8.60;;;7.90;;
19089;SDS011;9677;50.656;13.064;2023-08-07T12:47:33;8.30;;;7.60;;
19089;SDS011;9677;50.656;13.064;2023-08-07T12:50:01;8.60;;;7.90;;
19089;SDS011;9677;50.656;13.064;2023-08-07T12:52:29;8.70;;;8.00;;
19089;SDS011;9677;50.656;13.064;2023-08-07T12:54:59;8.60;;;7.90;;
19089;SDS011;9677;50.656;13.064;2023-08-07T12:57:27;8.63;;;7.93;;
19089;SDS011;9677;50.656;13.064;2023-08-07T12:59:55;8.63;;;7.90;;
19089;SDS011;9677;50.656;13.064;2023-08-07T13:02:23;8.50;;;7.80;;
19089;SDS011;9677;50.656;13.064;2023-08-07T13:04:52;8.60;;;7.90;;
19089;SDS011;9677;50.656;13.064;2023-08-07T13:07:20;8.40;;;7.70;;
19089;SDS011;9677;50.656;13.064;2023-08-07T13:09:48;8.73;;;8.03;;
19089;SDS011;9677;50.656;13.064;2023-08-07T13:12:18;8.60;;;7.90;;
19089;SDS011;9677;50.656;13.064;2023-08-07T13:14:46;8.60;;;7.90;;
19089;SDS011;9677;50.656;13.064;2023-08-07T13:17:14;8.50;;;7.80;;
19089;SDS011;9677;50.656;13.064;2023-08-07T13:19:42;8.40;;;7.70;;
19089;SDS011;9677;50.656;13.064;2023-08-07T13:22:10;8.50;;;7.80;;
19089;SDS011;9677;50.656;13.064;2023-08-07T13:24:38;8.37;;;7.67;;
19089;SDS011;9677;50.656;13.064;2023-08-07T13:27:06;8.60;;;7.90;;
19089;SDS011;9677;50.656;13.064;2023-08-07T13:29:36;8.30;;;7.60;;
19089;SDS011;9677;50.656;13.064;2023-08-07T13:32:04;8.47;;;7.77;;
19089;SDS011;9677;50.656;13.064;2023-08-07T13:34:36;8.40;;;7.70;;
19089;SDS011;9677;50.656;13.064;2023-08-07T13:37:04;8.30;;;7.60;;
19089;SDS011;9677;50.656;13.064;2023-08-07T13:39:33;8.60;;;7.90;;
19089;SDS011;9677;50.656;13.064;2023-08-07T13:42:01;8.70;;;7.90;;
19089;SDS011;9677;50.656;13.064;2023-08-07T13:44:30;8.50;;;7.80;;
19089;SDS011;9677;50.656;13.064;2023-08-07T13:46:59;8.40;;;7.70;;
19089;SDS011;9677;50.656;13.064;2023-08-07T13:49:28;8.40;;;7.70;;
19089;SDS011;9677;50.656;13.064;2023-08-07T13:51:56;8.83;;;8.13;;
19089;SDS011;9677;50.656;13.064;2023-08-07T13:54:24;8.50;;;7.80;;
19089;SDS011;9677;50.656;13.064;2023-08-07T13:56:53;8.20;;;7.60;;
19089;SDS011;9677;50.656;13.064;2023-08-07T13:59:21;8.50;;;7.80;;
19089;SDS011;9677;50.656;13.064;2023-08-07T14:01:49;8.30;;;7.60;;
19089;SDS011;9677;50.656;13.064;2023-08-07T14:04:19;8.50;;;7.80;;
19089;SDS011;9677;50.656;13.064;2023-08-07T14:06:48;8.30;;;7.60;;
19089;SDS011;9677;50.656;13.064;2023-08-07T14:09:16;8.40;;;7.70;;
19089;SDS011;9677;50.656;13.064;2023-08-07T14:11:47;8.30;;;7.60;;
19089;SDS011;9677;50.656;13.064;2023-08-07T14:14:16;8.57;;;7.80;;
19089;SDS011;9677;50.656;13.064;2023-08-07T14:16:44;8.40;;;7.70;;
19089;SDS011;9677;50.656;13.064;2023-08-07T14:19:12;8.40;;;7.70;;
19089;SDS011;9677;50.656;13.064;2023-08-07T14:21:42;8.47;;;7.77;;
19089;SDS011;9677;50.656;13.064;2023-08-07T14:24:10;9.20;;;7.77;;
19089;SDS011;9677;50.656;13.064;2023-08-07T14:26:38;8.30;;;7.60;;
19089;SDS011;9677;50.656;13.064;2023-08-07T14:29:06;8.40;;;7.70;;
19089;SDS011;9677;50.656;13.064;2023-08-07T14:31:35;8.70;;;7.90;;
19089;SDS011;9677;50.656;13.064;2023-08-07T14:34:03;8.60;;;7.90;;
19089;SDS011;9677;50.656;13.064;2023-08-07T14:36:31;8.70;;;8.00;;
19089;SDS011;9677;50.656;13.064;2023-08-07T14:39:01;8.60;;;7.90;;
19089;SDS011;9677;50.656;13.064;2023-08-07T14:41:29;8.40;;;7.70;;
19089;SDS011;9677;50.656;13.064;2023-08-07T14:43:57;8.50;;;7.80;;
19089;SDS011;9677;50.656;13.064;2023-08-07T14:46:25;8.57;;;7.87;;
19089;SDS011;9677;50.656;13.064;2023-08-07T14:48:54;8.40;;;7.70;;
19089;SDS011;9677;50.656;13.064;2023-08-07T14:51:22;9.90;;;8.20;;
19089;SDS011;9677;50.656;13.064;2023-08-07T14:53:50;8.50;;;7.80;;
19089;SDS011;9677;50.656;13.064;2023-08-07T14:56:20;8.50;;;7.80;;
19089;SDS011;9677;50.656;13.064;2023-08-07T14:58:49;8.70;;;8.00;;